Portada
METAR-TAF:

METAR-TAF

Aeroports :

Apia, Upolu, Samoa

latitud: 13-49S, longitud: 172-00W, altitud: 5 m

Observació

L'informe es va fer fa 1 hora i 15 minuts, a les 17:00 UTC
Vent 3 kt del Sud
Temperatura 23°C
Humitat 94%
Pressió 1011 hPa
Visibilitat 10 km o més
Escasses núvols a una alçada de 3000 ft

METAR: NSFA 261700Z 18003KT 9999 FEW030 23/22 Q1011 NOSIG

Hora: 07:15 (18:15 UTC)

Pronòstic

L'informe es va fer fa 53 minuts, a les 17:22 UTC
Pronòstic vàlid del 26 a les 18 UTC al 27 a les 18 UTC
Vent 7 kt del Sud/Sud-Est
Visibilitat 10 km o més
Escasses núvols a una alçada de 2800 ft
Núvols disperses a una alçada de 10000 ft
Probabilitat 40% :
Temporalment
l' 27 a les 06 UTC al 27 a les 12 UTC
Visibilitat: 5000 m
Cel ennuvolat a una alçada de 1500 ft
Escasses núvols a una alçada de 1800 ft, Cumulonimbus.
tempesta, pluja

TAF: NSFA 261722Z 2618/2718 15007KT 9999 FEW028 SCT100 PROB40 TEMPO 2706/2712 5000 TSRA BKN015 FEW018CB

Observacions i pronòstics meteorològics de més de 4000 aeroports (METAR i TAF).

Les estacions disponibles són els punts grocs i vermells al mapa.

Posi el ratolí al punt desitjat per veure el nom de l'estació.

Feu clic per veure les observacions i els pronòstics meteorològics.

Per canviar el mapa: feu clic els botons verds amb una creu de color negre per apropar; al botó verd amb un guió per allunyar la imatge; o en les fletxes verdes per a mapes adjacents.


METAR-TAF: